createdAt,value
2022-09-23T00:04:16.947Z,25.7
2022-09-23T00:09:47.386Z,25.7
2022-09-23T00:15:17.841Z,25.7
2022-09-23T00:20:48.349Z,25.7
2022-09-23T00:26:17.812Z,25.7
2022-09-23T00:31:48.274Z,25.7
2022-09-23T00:40:36.167Z,25.7
2022-09-23T00:46:06.655Z,25.6
2022-09-23T00:51:37.023Z,25.6
2022-09-23T00:57:06.516Z,25.6
2022-09-23T01:02:37.003Z,25.6
2022-09-23T01:08:07.460Z,25.5
2022-09-23T01:13:36.994Z,25.6
2022-09-23T01:19:07.430Z,25.5
2022-09-23T01:24:37.882Z,25.5
2022-09-23T01:30:07.404Z,25.5
2022-09-23T01:35:37.843Z,25.5
2022-09-23T01:41:08.344Z,25.5
2022-09-23T01:46:37.862Z,25.5
2022-09-23T01:52:08.301Z,25.5
2022-09-23T01:57:37.784Z,25.5
2022-09-23T02:03:08.275Z,25.4
2022-09-23T02:08:38.750Z,25.5
2022-09-23T02:14:08.235Z,25.5
2022-09-23T02:19:38.739Z,25.5
2022-09-23T02:25:09.207Z,25.4
2022-09-23T02:30:38.683Z,25.4
2022-09-23T02:36:09.207Z,25.4
2022-09-23T02:41:39.623Z,25.4
2022-09-23T02:47:09.129Z,25.4
2022-09-23T02:52:39.699Z,25.4
2022-09-23T02:58:10.080Z,25.4
2022-09-23T03:03:39.590Z,25.4
2022-09-23T03:09:10.089Z,25.4
2022-09-23T03:14:40.553Z,25.4
2022-09-23T03:20:10.041Z,25.4
2022-09-23T03:25:40.535Z,25.3
2022-09-23T03:31:10.985Z,25.3
2022-09-23T03:36:40.501Z,25.3
2022-09-23T03:42:10.963Z,25.3
2022-09-23T03:47:40.449Z,25.3
2022-09-23T03:53:10.926Z,25.3
2022-09-23T03:58:41.427Z,25.3
2022-09-23T04:04:10.905Z,25.3
2022-09-23T04:09:41.391Z,25.2
2022-09-23T04:15:10.924Z,25.2
2022-09-23T04:20:41.337Z,25.3
2022-09-23T04:26:11.808Z,23.8
2022-09-23T04:31:42.423Z,22.4
2022-09-23T04:37:11.804Z,21.6
2022-09-23T04:42:42.273Z,21.7
2022-09-23T04:48:11.766Z,22.6
2022-09-23T04:53:42.234Z,23.3
2022-09-23T04:59:12.707Z,23.7
2022-09-23T05:04:42.219Z,24
2022-09-23T05:10:12.698Z,24.3
2022-09-23T05:15:43.173Z,24.4
2022-09-23T05:21:12.706Z,24.6
2022-09-23T05:26:43.128Z,24.6
2022-09-23T05:32:13.589Z,24.7
2022-09-23T05:37:43.146Z,24.8
2022-09-23T05:43:13.575Z,24.9
2022-09-23T05:48:44.043Z,24.9
2022-09-23T05:54:13.565Z,25
2022-09-23T05:59:44.010Z,25
2022-09-23T06:05:14.488Z,25
2022-09-23T06:10:44.005Z,25.1
2022-09-23T06:16:14.524Z,25.1
2022-09-23T06:21:44.914Z,25.2
2022-09-23T06:27:15.433Z,25.2
2022-09-23T06:32:44.908Z,25.3
2022-09-23T06:38:15.354Z,25.4
2022-09-23T06:43:45.873Z,25.4
2022-09-23T06:49:15.343Z,25.5
2022-09-23T06:54:45.824Z,25.6
2022-09-23T07:00:15.341Z,25.6
2022-09-23T07:05:45.792Z,25.7
2022-09-23T07:11:16.327Z,25.8
2022-09-23T07:16:45.792Z,25.8
2022-09-23T07:22:16.235Z,25.9
2022-09-23T07:27:46.720Z,26
2022-09-23T07:33:28.978Z,26.1
2022-09-23T07:38:46.696Z,26.1
2022-09-23T07:44:17.163Z,26.1
2022-09-23T07:49:46.709Z,26.2
2022-09-23T07:55:20.819Z,26.4
2022-09-23T08:00:47.629Z,26.6
2022-09-23T08:06:17.126Z,27.1
2022-09-23T08:11:47.572Z,28.9
2022-09-23T08:17:18.054Z,30.3
2022-09-23T08:22:47.548Z,31
2022-09-23T08:28:17.996Z,31
2022-09-23T08:33:47.510Z,31.1
2022-09-23T08:39:18.000Z,31
2022-09-23T08:44:48.462Z,30.9
2022-09-23T08:50:17.949Z,30.7
2022-09-23T08:55:48.422Z,30.2
2022-09-23T09:01:18.947Z,29.9
2022-09-23T09:06:53.614Z,29.2
2022-09-23T09:12:18.876Z,28.8
2022-09-23T09:17:48.339Z,28.7
2022-09-23T09:23:18.814Z,28.4
2022-09-23T09:28:49.298Z,28.1
2022-09-23T09:34:18.783Z,28.1
2022-09-23T09:39:49.261Z,28.1
2022-09-23T09:45:20.040Z,28
2022-09-23T09:50:49.261Z,28
2022-09-23T09:56:19.647Z,28.1
2022-09-23T10:01:50.191Z,28.1
2022-09-23T10:07:19.584Z,28.2
2022-09-23T10:12:50.040Z,28.2
2022-09-23T10:18:20.558Z,28.2
2022-09-23T10:23:51.003Z,28
2022-09-23T10:29:21.681Z,27.8
2022-09-23T10:34:52.179Z,27.7
2022-09-23T10:40:22.677Z,27.7
2022-09-23T10:45:52.246Z,27.6
2022-09-23T10:51:26.253Z,27.5
2022-09-23T10:56:53.078Z,27.5
2022-09-23T11:02:22.591Z,27.4
2022-09-23T11:07:53.100Z,27.4
2022-09-23T11:13:23.538Z,27.4
2022-09-23T11:18:53.038Z,27.3
2022-09-23T11:24:23.532Z,27.3
2022-09-23T11:29:53.989Z,27.3
2022-09-23T11:35:23.488Z,27.5
2022-09-23T11:40:54.070Z,27.7
2022-09-23T11:46:24.506Z,27.8
2022-09-23T11:51:53.943Z,28
2022-09-23T11:57:24.439Z,28.1
2022-09-23T12:03:03.957Z,28.2
2022-09-23T12:08:24.369Z,28.2
2022-09-23T12:13:54.873Z,28.2
2022-09-23T12:19:24.321Z,28.2
2022-09-23T12:24:54.797Z,28.3
2022-09-23T12:30:25.335Z,28.4
2022-09-23T12:35:54.791Z,28.4
2022-09-23T12:41:25.236Z,28.3
2022-09-23T12:46:54.780Z,28.3
2022-09-23T12:52:25.246Z,28.2
2022-09-23T12:57:55.680Z,28.2
2022-09-23T13:03:25.341Z,28.2
2022-09-23T13:08:55.761Z,28
2022-09-23T13:14:27.719Z,27.9
2022-09-23T13:19:55.746Z,27.7
2022-09-23T13:25:26.219Z,27.6
2022-09-23T13:30:56.703Z,27.7
2022-09-23T13:36:26.219Z,27.7
2022-09-23T13:41:56.637Z,27.8
2022-09-23T13:47:26.125Z,27.8
2022-09-23T13:52:56.615Z,27.8
2022-09-23T13:58:27.100Z,27.8
2022-09-23T14:03:56.580Z,27.8
2022-09-23T14:09:27.073Z,27.7
2022-09-23T14:14:57.527Z,27.7
2022-09-23T14:20:27.999Z,27.6
2022-09-23T14:25:57.552Z,27.6
2022-09-23T14:31:28.015Z,27.6
2022-09-23T14:36:57.474Z,27.6
2022-09-23T14:42:27.969Z,27.5
2022-09-23T14:47:58.398Z,27.5
2022-09-23T14:53:27.923Z,27.5
2022-09-23T14:58:58.538Z,27.4
2022-09-23T15:04:28.975Z,27.4
2022-09-23T15:09:59.455Z,27.4
2022-09-23T15:15:29.952Z,27.3
2022-09-23T15:20:59.400Z,27.3
2022-09-23T15:26:29.872Z,27.3
2022-09-23T15:32:00.486Z,27.2
2022-09-23T15:37:32.911Z,27.2
2022-09-23T15:43:00.312Z,27.2
2022-09-23T15:48:30.789Z,27.2
2022-09-23T15:54:00.255Z,27.1
2022-09-23T15:59:30.727Z,27.1
2022-09-23T16:05:00.250Z,27
2022-09-23T16:10:30.697Z,27
2022-09-23T16:16:01.243Z,27
2022-09-23T16:21:31.706Z,27
2022-09-23T16:27:01.247Z,26.9
2022-09-23T16:32:31.726Z,26.9
2022-09-23T16:38:02.220Z,26.8
2022-09-23T16:43:31.812Z,26.7
2022-09-23T16:49:02.397Z,26.7
2022-09-23T16:54:32.739Z,26.7
2022-09-23T17:00:02.201Z,26.7
2022-09-23T17:05:32.685Z,26.8
2022-09-23T17:11:03.189Z,26.8
2022-09-23T17:16:32.758Z,26.8
2022-09-23T17:22:03.133Z,26.7
2022-09-23T17:27:33.729Z,26.8
2022-09-23T17:33:03.197Z,26.8
2022-09-23T17:38:33.683Z,26.8
2022-09-23T17:44:04.206Z,26.8
2022-09-23T17:49:33.673Z,26.8
2022-09-23T17:55:04.160Z,26.8
2022-09-23T18:00:34.732Z,26.8
2022-09-23T18:06:04.125Z,26.8
2022-09-23T18:11:34.588Z,26.9
2022-09-23T18:17:05.112Z,27
2022-09-23T18:22:34.558Z,27
2022-09-23T18:28:05.033Z,27
2022-09-23T18:33:35.696Z,27
2022-09-23T18:39:05.019Z,27
2022-09-23T18:44:35.620Z,26.9
2022-09-23T18:50:06.081Z,26.9
2022-09-23T18:55:35.562Z,26.9
2022-09-23T19:01:06.164Z,26.9
2022-09-23T19:06:36.580Z,26.9
2022-09-23T19:12:06.995Z,26.9
2022-09-23T19:17:36.479Z,26.9
2022-09-23T19:23:06.975Z,26.9
2022-09-23T19:28:37.426Z,26.9
2022-09-23T19:34:08.076Z,26.8
2022-09-23T19:39:38.536Z,26.8
2022-09-23T19:45:08.985Z,26.7
2022-09-23T19:50:38.501Z,26.7
2022-09-23T19:56:09.009Z,26.6
2022-09-23T20:01:38.527Z,26.6
2022-09-23T20:07:08.969Z,26.5
2022-09-23T20:12:39.555Z,26.5
2022-09-23T20:18:09.020Z,26.4
2022-09-23T20:23:39.504Z,26.4
2022-09-23T20:29:09.045Z,26.4
2022-09-23T20:34:39.505Z,26.4
2022-09-23T20:40:10.005Z,26.4
2022-09-23T20:45:39.478Z,26.3
2022-09-23T20:51:09.917Z,26.3
2022-09-23T20:56:40.386Z,26.3
2022-09-23T21:02:11.053Z,26.3
2022-09-23T21:07:40.357Z,26.3
2022-09-23T21:13:10.825Z,26.3
2022-09-23T21:18:41.327Z,26.3
2022-09-23T21:24:45.693Z,26.2
2022-09-23T21:29:41.375Z,26.2
2022-09-23T21:35:11.871Z,26.2
2022-09-23T21:40:41.462Z,26.2
2022-09-23T21:46:11.931Z,26.2
2022-09-23T21:51:42.371Z,26.2
2022-09-23T21:57:12.802Z,26.2
2022-09-23T22:02:42.284Z,26.2
2022-09-23T22:08:12.775Z,26.1
2022-09-23T22:13:43.253Z,26.1
2022-09-23T22:19:11.747Z,26.1
2022-09-23T22:24:42.253Z,26.1
2022-09-23T22:30:12.688Z,26.1
2022-09-23T22:35:42.186Z,26.1
2022-09-23T22:41:12.681Z,26.1
2022-09-23T22:46:43.247Z,26.1
2022-09-23T22:52:12.711Z,26
2022-09-23T22:57:43.217Z,26.1
2022-09-23T23:03:13.680Z,26
2022-09-23T23:08:43.189Z,26
2022-09-23T23:14:13.670Z,26
2022-09-23T23:19:44.116Z,26
2022-09-23T23:25:13.588Z,26
2022-09-23T23:30:44.091Z,26
2022-09-23T23:36:14.537Z,26
2022-09-23T23:41:44.035Z,26
2022-09-23T23:47:14.521Z,26
2022-09-23T23:52:43.982Z,26
2022-09-23T23:58:14.447Z,25.9
